Kezdőlap
METAR-TAF:

METAR-TAF

Repülőterek :

Pontianak, Indonézia

földrajzi szélesség: 00-09S, földrajzi hosszúság: 109-24E, magasság: 3 m

Jelenlegi meteorológiai megfigyelések

A jelentés 48 perccel ezelõtt készült, 00:00 UTC
Keleti szél 4 kt
Hőmérséklet 26°C
Páratartalom 100%
Légköri nyomás 1011 hPa
Látótávolság: 7000 m
Kevés felhő 1200 lábon

METAR: WIOO 210000Z 10004KT 7000 FEW012 26/26 Q1011 NOSIG

Idő: 07:48 (00:48 UTC)


TAF: hiányzik

Meteorológiai megfigyelések és előrejelzések több, mint 4000 repülőtéren (METAR és TAF jelentéseket).

A térképen piros és sárga pontok jelzik az elérhető meteorológiai állomásokat.

Mozgassa az egeret a pont fölött, hogy megjelenjen az állomás neve.

Azután kattintson az időjárási megfigyelések és előrejelzések megtekintéséhez.

A térkép megváltoztatása: kattintson a fekete keresztel jelölt zöld gombra ráközelítéshez, a vonallal jelölt zöld gombra távolításhoz, vagy a zöld nyilakra a szomszédos térképek eléréséhez.


METAR-TAF: